Tonopah Airport

About
Name: Tonopah Airport
Identifier:  TPH/KTPH
Serves:  Tonopah, Nevada
Owner:  Nye County
Public/Private:  Public
Local Time:  17. Aug 22:21 PDT
Description: Tonopah Airport is a county-owned, public-use airport located seven nautical miles east of the central business district of Tonopah, in Nye County, Nevada, United States.
Source: Wikipedia
Location
Runways
Identifier Length (m/ft) Surface
15/33 7,161/7,161 Asphalt
11/29 6,196/6,196 Asphalt
Flights per Day
0 flights
Distance: 539km (335mi)
Punctuality
0% (0 flights per day delayed)
Delay Average: 42 minutes
Current Weather
 24 C (Humidity: 13%)
  3kt (5km/h / 3mph) from 140°
  16km (10 mi.)
 
 METAR KTPH 180456Z AUTO 14003KT 10SM CLR 24/M06 A2999 RMK AO2 SLP064 T02391056

Current Flights

Departures
Number Departure To Airline
Arrivals
Number Arrival From Airline

Current Delays

Departures
N/A
Arrivals
N/A

Destinations

Top Destinations
Airport Flights
per week
Seats
per week
  Bishop (BIH) 0 - 0 0
  Twin Falls (TWF) 0 29 0 4
  Eagle (EGE) 0 - 0 0
  San Marcos (HYI) 0 - 0 0

Airlines & Planes

Top Airlines
Airline Flights
per Day
Seats
per Day
  Aeroméxico 0 4
  Ameriflight 0 -
Jet Charter Inc ( Franklin Lakes Nj ) 0 -
Top Plane Types
Model Flights Seats
Airbus A320 0.0/day 4/day 4.2
Beech C-99 Airliner 0.0/day - 0
Pilatus PC-12 0.0/day - 0
Cirrus SR22 0.0/day - 0